sensor_id;sensor_type;location;lat;lon;timestamp;temperature;humidity
32907;DHT22;19259;51.590;5.320;2022-08-21T00:01:44;16.30;99.90
32907;DHT22;19259;51.590;5.320;2022-08-21T00:04:12;16.30;99.90
32907;DHT22;19259;51.590;5.320;2022-08-21T00:06:40;16.30;99.90
32907;DHT22;19259;51.590;5.320;2022-08-21T00:09:09;16.30;99.90
32907;DHT22;19259;51.590;5.320;2022-08-21T00:11:38;16.30;99.90
32907;DHT22;19259;51.590;5.320;2022-08-21T00:14:08;16.30;99.90
32907;DHT22;19259;51.590;5.320;2022-08-21T00:16:36;16.20;99.90
32907;DHT22;19259;51.590;5.320;2022-08-21T00:19:05;16.20;99.90
32907;DHT22;19259;51.590;5.320;2022-08-21T00:21:34;16.20;99.90
32907;DHT22;19259;51.590;5.320;2022-08-21T00:24:02;16.20;99.90
32907;DHT22;19259;51.590;5.320;2022-08-21T00:26:30;16.00;99.90
32907;DHT22;19259;51.590;5.320;2022-08-21T00:28:57;16.00;99.90
32907;DHT22;19259;51.590;5.320;2022-08-21T00:31:25;16.00;99.90
32907;DHT22;19259;51.590;5.320;2022-08-21T00:33:52;15.90;99.90
32907;DHT22;19259;51.590;5.320;2022-08-21T00:36:20;16.00;99.90
32907;DHT22;19259;51.590;5.320;2022-08-21T00:38:47;15.90;99.90
32907;DHT22;19259;51.590;5.320;2022-08-21T00:41:15;16.00;99.90
32907;DHT22;19259;51.590;5.320;2022-08-21T00:43:42;15.90;99.90
32907;DHT22;19259;51.590;5.320;2022-08-21T00:46:10;15.90;99.90
32907;DHT22;19259;51.590;5.320;2022-08-21T00:48:37;15.80;99.90
32907;DHT22;19259;51.590;5.320;2022-08-21T00:51:08;15.70;99.90
32907;DHT22;19259;51.590;5.320;2022-08-21T00:53:46;15.80;99.90
32907;DHT22;19259;51.590;5.320;2022-08-21T00:56:12;15.80;99.90
32907;DHT22;19259;51.590;5.320;2022-08-21T00:58:41;15.80;99.90
32907;DHT22;19259;51.590;5.320;2022-08-21T01:01:10;15.70;99.90
32907;DHT22;19259;51.590;5.320;2022-08-21T01:03:38;15.70;99.90
32907;DHT22;19259;51.590;5.320;2022-08-21T01:06:06;15.70;99.90
32907;DHT22;19259;51.590;5.320;2022-08-21T01:08:35;15.60;99.90
32907;DHT22;19259;51.590;5.320;2022-08-21T01:11:03;15.60;99.90
32907;DHT22;19259;51.590;5.320;2022-08-21T01:13:34;15.50;99.90
32907;DHT22;19259;51.590;5.320;2022-08-21T01:16:04;15.40;99.90
32907;DHT22;19259;51.590;5.320;2022-08-21T01:18:32;15.40;99.90
32907;DHT22;19259;51.590;5.320;2022-08-21T01:21:14;15.50;99.90
32907;DHT22;19259;51.590;5.320;2022-08-21T01:23:48;15.50;99.90
32907;DHT22;19259;51.590;5.320;2022-08-21T01:26:15;15.50;99.90
32907;DHT22;19259;51.590;5.320;2022-08-21T01:31:18;15.60;99.90
32907;DHT22;19259;51.590;5.320;2022-08-21T01:33:47;15.60;99.90
32907;DHT22;19259;51.590;5.320;2022-08-21T01:36:15;15.50;99.90
32907;DHT22;19259;51.590;5.320;2022-08-21T01:38:42;15.50;99.90
32907;DHT22;19259;51.590;5.320;2022-08-21T01:41:10;15.50;99.90
32907;DHT22;19259;51.590;5.320;2022-08-21T01:43:38;15.50;99.90
32907;DHT22;19259;51.590;5.320;2022-08-21T01:46:05;15.50;99.90
32907;DHT22;19259;51.590;5.320;2022-08-21T01:48:35;15.60;99.90
32907;DHT22;19259;51.590;5.320;2022-08-21T01:51:04;15.60;99.90
32907;DHT22;19259;51.590;5.320;2022-08-21T01:53:33;15.60;99.90
32907;DHT22;19259;51.590;5.320;2022-08-21T01:56:09;15.60;99.90
32907;DHT22;19259;51.590;5.320;2022-08-21T01:58:32;15.70;99.90
32907;DHT22;19259;51.590;5.320;2022-08-21T02:01:01;15.60;99.90
32907;DHT22;19259;51.590;5.320;2022-08-21T02:03:31;15.50;99.90
32907;DHT22;19259;51.590;5.320;2022-08-21T02:05:58;15.50;99.90
32907;DHT22;19259;51.590;5.320;2022-08-21T02:08:28;15.40;99.90
32907;DHT22;19259;51.590;5.320;2022-08-21T02:10:55;15.40;99.90
32907;DHT22;19259;51.590;5.320;2022-08-21T02:13:23;15.40;99.90
32907;DHT22;19259;51.590;5.320;2022-08-21T02:15:50;15.50;99.90
32907;DHT22;19259;51.590;5.320;2022-08-21T02:18:18;15.50;99.90
32907;DHT22;19259;51.590;5.320;2022-08-21T02:20:48;15.50;99.90
32907;DHT22;19259;51.590;5.320;2022-08-21T02:23:17;15.40;99.90
32907;DHT22;19259;51.590;5.320;2022-08-21T02:25:44;15.40;99.90
32907;DHT22;19259;51.590;5.320;2022-08-21T02:28:14;15.40;99.90
32907;DHT22;19259;51.590;5.320;2022-08-21T02:30:45;15.40;99.90
32907;DHT22;19259;51.590;5.320;2022-08-21T02:33:13;15.40;99.90
32907;DHT22;19259;51.590;5.320;2022-08-21T02:35:42;15.30;99.90
32907;DHT22;19259;51.590;5.320;2022-08-21T02:38:16;15.30;99.90
32907;DHT22;19259;51.590;5.320;2022-08-21T02:40:43;15.30;99.90
32907;DHT22;19259;51.590;5.320;2022-08-21T02:43:11;15.40;99.90
32907;DHT22;19259;51.590;5.320;2022-08-21T02:45:39;15.40;99.90
32907;DHT22;19259;51.590;5.320;2022-08-21T02:48:08;15.30;99.90
32907;DHT22;19259;51.590;5.320;2022-08-21T02:50:42;15.20;99.90
32907;DHT22;19259;51.590;5.320;2022-08-21T02:53:11;15.10;99.90
32907;DHT22;19259;51.590;5.320;2022-08-21T02:55:41;15.00;99.90
32907;DHT22;19259;51.590;5.320;2022-08-21T02:58:09;14.90;99.90
32907;DHT22;19259;51.590;5.320;2022-08-21T03:00:40;14.90;99.90
32907;DHT22;19259;51.590;5.320;2022-08-21T03:03:07;14.90;99.90
32907;DHT22;19259;51.590;5.320;2022-08-21T03:05:36;14.80;99.90
32907;DHT22;19259;51.590;5.320;2022-08-21T03:08:08;14.80;99.90
32907;DHT22;19259;51.590;5.320;2022-08-21T03:10:39;14.90;99.90
32907;DHT22;19259;51.590;5.320;2022-08-21T03:13:07;14.80;99.90
32907;DHT22;19259;51.590;5.320;2022-08-21T03:15:36;14.80;99.90
32907;DHT22;19259;51.590;5.320;2022-08-21T03:18:04;14.80;99.90
32907;DHT22;19259;51.590;5.320;2022-08-21T03:20:34;14.80;99.90
32907;DHT22;19259;51.590;5.320;2022-08-21T03:23:04;14.80;99.90
32907;DHT22;19259;51.590;5.320;2022-08-21T03:25:33;14.70;99.90
32907;DHT22;19259;51.590;5.320;2022-08-21T03:28:05;14.70;99.90
32907;DHT22;19259;51.590;5.320;2022-08-21T03:30:33;14.70;99.90
32907;DHT22;19259;51.590;5.320;2022-08-21T03:33:01;14.50;99.90
32907;DHT22;19259;51.590;5.320;2022-08-21T03:35:29;14.40;99.90
32907;DHT22;19259;51.590;5.320;2022-08-21T03:37:57;14.50;99.90
32907;DHT22;19259;51.590;5.320;2022-08-21T03:40:25;14.40;99.90
32907;DHT22;19259;51.590;5.320;2022-08-21T03:42:52;14.20;99.90
32907;DHT22;19259;51.590;5.320;2022-08-21T03:45:21;14.20;99.90
32907;DHT22;19259;51.590;5.320;2022-08-21T03:47:57;14.20;99.90
32907;DHT22;19259;51.590;5.320;2022-08-21T03:50:28;14.10;99.90
32907;DHT22;19259;51.590;5.320;2022-08-21T03:52:56;14.20;99.90
32907;DHT22;19259;51.590;5.320;2022-08-21T03:55:25;14.20;99.90
32907;DHT22;19259;51.590;5.320;2022-08-21T03:57:52;14.20;99.90
32907;DHT22;19259;51.590;5.320;2022-08-21T04:00:20;14.10;99.90
32907;DHT22;19259;51.590;5.320;2022-08-21T04:02:48;14.20;99.90
32907;DHT22;19259;51.590;5.320;2022-08-21T04:05:17;14.10;99.90
32907;DHT22;19259;51.590;5.320;2022-08-21T04:07:47;14.30;99.90
32907;DHT22;19259;51.590;5.320;2022-08-21T04:10:14;14.40;99.90
32907;DHT22;19259;51.590;5.320;2022-08-21T04:12:42;14.50;99.90
32907;DHT22;19259;51.590;5.320;2022-08-21T04:15:10;14.40;99.90
32907;DHT22;19259;51.590;5.320;2022-08-21T04:17:39;14.40;99.90
32907;DHT22;19259;51.590;5.320;2022-08-21T04:20:07;14.40;99.90
32907;DHT22;19259;51.590;5.320;2022-08-21T04:22:35;14.20;99.90
32907;DHT22;19259;51.590;5.320;2022-08-21T04:25:03;14.10;99.90
32907;DHT22;19259;51.590;5.320;2022-08-21T04:27:31;14.10;99.90
32907;DHT22;19259;51.590;5.320;2022-08-21T04:29:58;14.10;99.90
32907;DHT22;19259;51.590;5.320;2022-08-21T04:32:27;14.20;99.90
32907;DHT22;19259;51.590;5.320;2022-08-21T04:35:00;14.20;99.90
32907;DHT22;19259;51.590;5.320;2022-08-21T04:37:28;14.10;99.90
32907;DHT22;19259;51.590;5.320;2022-08-21T04:39:55;14.10;99.90
32907;DHT22;19259;51.590;5.320;2022-08-21T04:42:25;14.00;99.90
32907;DHT22;19259;51.590;5.320;2022-08-21T04:44:54;13.90;99.90
32907;DHT22;19259;51.590;5.320;2022-08-21T04:47:23;13.90;99.90
32907;DHT22;19259;51.590;5.320;2022-08-21T04:49:51;13.90;99.90
32907;DHT22;19259;51.590;5.320;2022-08-21T04:52:21;14.00;99.90
32907;DHT22;19259;51.590;5.320;2022-08-21T04:54:50;14.00;99.90
32907;DHT22;19259;51.590;5.320;2022-08-21T04:57:19;14.00;99.90
32907;DHT22;19259;51.590;5.320;2022-08-21T04:59:49;14.10;99.90
32907;DHT22;19259;51.590;5.320;2022-08-21T05:02:21;14.10;99.90
32907;DHT22;19259;51.590;5.320;2022-08-21T05:04:51;14.20;99.90
32907;DHT22;19259;51.590;5.320;2022-08-21T05:07:22;14.20;99.90
32907;DHT22;19259;51.590;5.320;2022-08-21T05:09:55;14.40;99.90
32907;DHT22;19259;51.590;5.320;2022-08-21T05:12:23;14.40;99.90
32907;DHT22;19259;51.590;5.320;2022-08-21T05:14:51;14.30;99.90
32907;DHT22;19259;51.590;5.320;2022-08-21T05:17:19;14.30;99.90
32907;DHT22;19259;51.590;5.320;2022-08-21T05:19:49;14.30;99.90
32907;DHT22;19259;51.590;5.320;2022-08-21T05:22:21;14.30;99.90
32907;DHT22;19259;51.590;5.320;2022-08-21T05:24:51;14.40;99.90
32907;DHT22;19259;51.590;5.320;2022-08-21T05:27:19;14.50;99.90
32907;DHT22;19259;51.590;5.320;2022-08-21T05:29:46;14.40;99.90
32907;DHT22;19259;51.590;5.320;2022-08-21T05:32:14;14.60;99.90
32907;DHT22;19259;51.590;5.320;2022-08-21T05:34:42;14.70;99.90
32907;DHT22;19259;51.590;5.320;2022-08-21T05:37:11;14.60;99.90
32907;DHT22;19259;51.590;5.320;2022-08-21T05:39:39;14.70;99.90
32907;DHT22;19259;51.590;5.320;2022-08-21T05:42:09;14.70;99.90
32907;DHT22;19259;51.590;5.320;2022-08-21T05:44:36;14.80;99.90
32907;DHT22;19259;51.590;5.320;2022-08-21T05:47:06;14.90;99.90
32907;DHT22;19259;51.590;5.320;2022-08-21T05:49:35;15.20;99.90
32907;DHT22;19259;51.590;5.320;2022-08-21T05:52:04;15.50;99.90
32907;DHT22;19259;51.590;5.320;2022-08-21T05:54:31;15.60;99.90
32907;DHT22;19259;51.590;5.320;2022-08-21T05:56:59;15.80;99.90
32907;DHT22;19259;51.590;5.320;2022-08-21T05:59:27;15.50;99.90
32907;DHT22;19259;51.590;5.320;2022-08-21T06:01:54;15.60;99.90
32907;DHT22;19259;51.590;5.320;2022-08-21T06:04:22;15.60;99.90
32907;DHT22;19259;51.590;5.320;2022-08-21T06:06:49;15.60;99.90
32907;DHT22;19259;51.590;5.320;2022-08-21T06:09:17;15.60;99.90
32907;DHT22;19259;51.590;5.320;2022-08-21T06:11:44;15.80;99.90
32907;DHT22;19259;51.590;5.320;2022-08-21T06:14:14;16.00;99.90
32907;DHT22;19259;51.590;5.320;2022-08-21T06:16:46;16.20;99.90
32907;DHT22;19259;51.590;5.320;2022-08-21T06:19:14;16.30;99.90
32907;DHT22;19259;51.590;5.320;2022-08-21T06:21:42;16.30;99.90
32907;DHT22;19259;51.590;5.320;2022-08-21T06:24:09;16.30;99.90
32907;DHT22;19259;51.590;5.320;2022-08-21T06:26:37;16.20;99.90
32907;DHT22;19259;51.590;5.320;2022-08-21T06:29:05;16.40;99.90
32907;DHT22;19259;51.590;5.320;2022-08-21T06:31:33;16.40;99.90
32907;DHT22;19259;51.590;5.320;2022-08-21T06:34:00;16.60;99.90
32907;DHT22;19259;51.590;5.320;2022-08-21T06:36:28;16.60;99.90
32907;DHT22;19259;51.590;5.320;2022-08-21T06:38:55;16.80;99.90
32907;DHT22;19259;51.590;5.320;2022-08-21T06:41:23;17.00;99.90
32907;DHT22;19259;51.590;5.320;2022-08-21T06:43:50;17.10;99.90
32907;DHT22;19259;51.590;5.320;2022-08-21T06:46:18;17.10;99.90
32907;DHT22;19259;51.590;5.320;2022-08-21T06:48:45;17.10;99.90
32907;DHT22;19259;51.590;5.320;2022-08-21T06:51:13;17.10;99.90
32907;DHT22;19259;51.590;5.320;2022-08-21T06:53:40;17.20;99.90
32907;DHT22;19259;51.590;5.320;2022-08-21T06:56:08;17.30;99.90
32907;DHT22;19259;51.590;5.320;2022-08-21T06:58:36;17.40;99.90
32907;DHT22;19259;51.590;5.320;2022-08-21T07:01:08;17.40;99.90
32907;DHT22;19259;51.590;5.320;2022-08-21T07:03:38;17.50;99.90
32907;DHT22;19259;51.590;5.320;2022-08-21T07:06:07;17.70;99.90
32907;DHT22;19259;51.590;5.320;2022-08-21T07:08:35;17.80;99.90
32907;DHT22;19259;51.590;5.320;2022-08-21T07:11:08;18.00;99.90
32907;DHT22;19259;51.590;5.320;2022-08-21T07:13:35;18.20;99.90
32907;DHT22;19259;51.590;5.320;2022-08-21T07:16:03;18.30;99.90
32907;DHT22;19259;51.590;5.320;2022-08-21T07:18:31;18.40;99.90
32907;DHT22;19259;51.590;5.320;2022-08-21T07:21:03;18.50;99.90
32907;DHT22;19259;51.590;5.320;2022-08-21T07:23:37;18.60;99.90
32907;DHT22;19259;51.590;5.320;2022-08-21T07:26:03;18.60;99.90
32907;DHT22;19259;51.590;5.320;2022-08-21T07:28:30;18.70;99.90
32907;DHT22;19259;51.590;5.320;2022-08-21T07:30:59;18.70;99.90
32907;DHT22;19259;51.590;5.320;2022-08-21T07:33:30;18.70;99.90
32907;DHT22;19259;51.590;5.320;2022-08-21T07:35:58;18.70;99.90
32907;DHT22;19259;51.590;5.320;2022-08-21T07:38:26;18.80;99.90
32907;DHT22;19259;51.590;5.320;2022-08-21T07:40:56;18.90;99.90
32907;DHT22;19259;51.590;5.320;2022-08-21T07:43:25;19.10;99.90
32907;DHT22;19259;51.590;5.320;2022-08-21T07:45:54;19.30;99.90
32907;DHT22;19259;51.590;5.320;2022-08-21T07:48:25;19.30;99.90
32907;DHT22;19259;51.590;5.320;2022-08-21T07:50:52;19.20;99.90
32907;DHT22;19259;51.590;5.320;2022-08-21T07:53:21;19.30;99.90
32907;DHT22;19259;51.590;5.320;2022-08-21T07:55:49;19.40;99.90
32907;DHT22;19259;51.590;5.320;2022-08-21T07:58:16;19.50;99.90
32907;DHT22;19259;51.590;5.320;2022-08-21T08:00:44;19.50;99.90
32907;DHT22;19259;51.590;5.320;2022-08-21T08:03:11;19.60;99.90
32907;DHT22;19259;51.590;5.320;2022-08-21T08:05:39;19.50;99.90
32907;DHT22;19259;51.590;5.320;2022-08-21T08:08:08;19.70;99.90
32907;DHT22;19259;51.590;5.320;2022-08-21T08:10:37;19.70;99.90
32907;DHT22;19259;51.590;5.320;2022-08-21T08:13:06;19.80;99.90
32907;DHT22;19259;51.590;5.320;2022-08-21T08:15:33;19.90;99.90
32907;DHT22;19259;51.590;5.320;2022-08-21T08:18:01;20.10;99.90
32907;DHT22;19259;51.590;5.320;2022-08-21T08:20:29;20.10;99.90
32907;DHT22;19259;51.590;5.320;2022-08-21T08:22:57;20.20;99.90
32907;DHT22;19259;51.590;5.320;2022-08-21T08:25:25;20.40;99.90
32907;DHT22;19259;51.590;5.320;2022-08-21T08:27:52;20.50;99.90
32907;DHT22;19259;51.590;5.320;2022-08-21T08:30:22;20.70;99.90
32907;DHT22;19259;51.590;5.320;2022-08-21T08:32:50;20.90;99.90
32907;DHT22;19259;51.590;5.320;2022-08-21T08:35:18;20.90;99.90
32907;DHT22;19259;51.590;5.320;2022-08-21T08:37:47;20.80;99.90
32907;DHT22;19259;51.590;5.320;2022-08-21T08:40:25;20.60;99.90
32907;DHT22;19259;51.590;5.320;2022-08-21T08:42:51;20.60;99.90
32907;DHT22;19259;51.590;5.320;2022-08-21T08:45:21;20.90;99.90
32907;DHT22;19259;51.590;5.320;2022-08-21T08:47:57;20.90;99.90
32907;DHT22;19259;51.590;5.320;2022-08-21T08:53:27;21.10;99.90
32907;DHT22;19259;51.590;5.320;2022-08-21T08:55:52;21.20;99.90
32907;DHT22;19259;51.590;5.320;2022-08-21T08:58:25;21.10;99.90
32907;DHT22;19259;51.590;5.320;2022-08-21T09:00:55;21.30;99.90
32907;DHT22;19259;51.590;5.320;2022-08-21T09:03:24;21.40;99.90
32907;DHT22;19259;51.590;5.320;2022-08-21T09:06:08;21.30;99.90
32907;DHT22;19259;51.590;5.320;2022-08-21T09:20:14;21.50;99.90
32907;DHT22;19259;51.590;5.320;2022-08-21T09:22:55;21.60;99.90
32907;DHT22;19259;51.590;5.320;2022-08-21T09:25:28;21.60;99.90
32907;DHT22;19259;51.590;5.320;2022-08-21T09:27:56;21.40;99.90
32907;DHT22;19259;51.590;5.320;2022-08-21T09:30:31;21.60;99.90
32907;DHT22;19259;51.590;5.320;2022-08-21T09:32:55;21.60;99.90
32907;DHT22;19259;51.590;5.320;2022-08-21T09:35:26;21.70;99.90
32907;DHT22;19259;51.590;5.320;2022-08-21T09:37:59;21.60;99.90
32907;DHT22;19259;51.590;5.320;2022-08-21T09:40:45;21.60;99.90
32907;DHT22;19259;51.590;5.320;2022-08-21T09:43:17;21.50;99.90
32907;DHT22;19259;51.590;5.320;2022-08-21T09:45:46;21.70;99.90
32907;DHT22;19259;51.590;5.320;2022-08-21T09:48:20;21.80;99.90
32907;DHT22;19259;51.590;5.320;2022-08-21T09:50:49;22.10;99.90
32907;DHT22;19259;51.590;5.320;2022-08-21T09:53:21;22.10;99.90
32907;DHT22;19259;51.590;5.320;2022-08-21T09:55:53;22.30;99.90
32907;DHT22;19259;51.590;5.320;2022-08-21T09:58:42;22.20;99.90
32907;DHT22;19259;51.590;5.320;2022-08-21T10:01:20;22.40;99.90
32907;DHT22;19259;51.590;5.320;2022-08-21T10:03:48;22.30;99.90
32907;DHT22;19259;51.590;5.320;2022-08-21T10:06:25;22.40;99.90
32907;DHT22;19259;51.590;5.320;2022-08-21T10:09:12;22.50;99.90
32907;DHT22;19259;51.590;5.320;2022-08-21T10:11:42;22.50;99.90
32907;DHT22;19259;51.590;5.320;2022-08-21T10:14:30;22.70;99.90
32907;DHT22;19259;51.590;5.320;2022-08-21T10:17:05;22.70;99.90
32907;DHT22;19259;51.590;5.320;2022-08-21T10:22:35;22.50;99.90
32907;DHT22;19259;51.590;5.320;2022-08-21T10:25:23;22.40;99.90
32907;DHT22;19259;51.590;5.320;2022-08-21T10:33:28;22.40;99.90
32907;DHT22;19259;51.590;5.320;2022-08-21T10:36:14;22.40;99.90
32907;DHT22;19259;51.590;5.320;2022-08-21T10:39:04;22.70;99.90
32907;DHT22;19259;51.590;5.320;2022-08-21T10:55:31;23.00;99.90
32907;DHT22;19259;51.590;5.320;2022-08-21T10:58:11;23.00;99.90
32907;DHT22;19259;51.590;5.320;2022-08-21T11:00:50;22.90;99.90
32907;DHT22;19259;51.590;5.320;2022-08-21T11:03:27;22.90;99.90
32907;DHT22;19259;51.590;5.320;2022-08-21T11:05:58;23.00;99.90
32907;DHT22;19259;51.590;5.320;2022-08-21T11:08:29;23.20;99.90
32907;DHT22;19259;51.590;5.320;2022-08-21T11:11:25;23.10;99.90
32907;DHT22;19259;51.590;5.320;2022-08-21T11:22:13;23.50;99.90
32907;DHT22;19259;51.590;5.320;2022-08-21T11:24:54;23.70;99.90
32907;DHT22;19259;51.590;5.320;2022-08-21T11:27:45;24.20;99.90
32907;DHT22;19259;51.590;5.320;2022-08-21T11:30:13;24.60;99.90
32907;DHT22;19259;51.590;5.320;2022-08-21T11:33:04;24.60;99.90
32907;DHT22;19259;51.590;5.320;2022-08-21T11:38:21;24.50;99.90
32907;DHT22;19259;51.590;5.320;2022-08-21T11:41:25;24.70;99.90
32907;DHT22;19259;51.590;5.320;2022-08-21T11:44:18;24.70;99.90
32907;DHT22;19259;51.590;5.320;2022-08-21T11:47:05;24.70;99.90
32907;DHT22;19259;51.590;5.320;2022-08-21T11:50:12;24.60;99.90
32907;DHT22;19259;51.590;5.320;2022-08-21T11:52:38;24.40;99.90
32907;DHT22;19259;51.590;5.320;2022-08-21T11:55:24;24.30;99.90
32907;DHT22;19259;51.590;5.320;2022-08-21T11:58:01;24.30;99.90
32907;DHT22;19259;51.590;5.320;2022-08-21T12:00:36;24.70;99.90
32907;DHT22;19259;51.590;5.320;2022-08-21T12:03:29;24.20;99.90
32907;DHT22;19259;51.590;5.320;2022-08-21T12:06:05;24.00;99.90
32907;DHT22;19259;51.590;5.320;2022-08-21T12:08:33;23.70;99.90
32907;DHT22;19259;51.590;5.320;2022-08-21T12:11:09;23.60;99.90
32907;DHT22;19259;51.590;5.320;2022-08-21T12:13:40;23.40;99.90
32907;DHT22;19259;51.590;5.320;2022-08-21T12:16:13;23.30;99.90
32907;DHT22;19259;51.590;5.320;2022-08-21T12:18:42;23.50;99.90
32907;DHT22;19259;51.590;5.320;2022-08-21T12:21:27;23.60;99.90
32907;DHT22;19259;51.590;5.320;2022-08-21T12:24:15;24.00;99.90
32907;DHT22;19259;51.590;5.320;2022-08-21T12:32:02;23.90;99.90
32907;DHT22;19259;51.590;5.320;2022-08-21T12:34:38;24.00;99.90
32907;DHT22;19259;51.590;5.320;2022-08-21T12:37:19;24.10;99.90
32907;DHT22;19259;51.590;5.320;2022-08-21T12:39:49;24.10;99.90
32907;DHT22;19259;51.590;5.320;2022-08-21T12:42:20;24.20;99.90
32907;DHT22;19259;51.590;5.320;2022-08-21T12:45:04;24.30;99.90
32907;DHT22;19259;51.590;5.320;2022-08-21T12:47:28;24.30;99.90
32907;DHT22;19259;51.590;5.320;2022-08-21T12:49:58;24.30;99.90
32907;DHT22;19259;51.590;5.320;2022-08-21T12:52:32;24.00;99.90
32907;DHT22;19259;51.590;5.320;2022-08-21T12:54:59;24.00;99.90
32907;DHT22;19259;51.590;5.320;2022-08-21T12:57:29;24.00;99.90
32907;DHT22;19259;51.590;5.320;2022-08-21T12:59:59;23.80;99.90
32907;DHT22;19259;51.590;5.320;2022-08-21T13:02:32;23.70;99.90
32907;DHT22;19259;51.590;5.320;2022-08-21T13:05:04;23.50;99.90
32907;DHT22;19259;51.590;5.320;2022-08-21T13:07:35;23.50;99.90
32907;DHT22;19259;51.590;5.320;2022-08-21T13:10:26;23.80;99.90
32907;DHT22;19259;51.590;5.320;2022-08-21T13:13:10;24.10;99.90
32907;DHT22;19259;51.590;5.320;2022-08-21T13:15:40;24.40;99.90
32907;DHT22;19259;51.590;5.320;2022-08-21T13:18:08;24.60;99.90
32907;DHT22;19259;51.590;5.320;2022-08-21T13:20:39;24.70;99.90
32907;DHT22;19259;51.590;5.320;2022-08-21T13:23:29;24.60;99.90
32907;DHT22;19259;51.590;5.320;2022-08-21T13:25:53;24.30;99.90
32907;DHT22;19259;51.590;5.320;2022-08-21T13:28:31;24.20;99.90
32907;DHT22;19259;51.590;5.320;2022-08-21T13:30:55;23.90;99.90
32907;DHT22;19259;51.590;5.320;2022-08-21T13:33:25;23.80;99.90
32907;DHT22;19259;51.590;5.320;2022-08-21T13:36:04;23.60;99.90
32907;DHT22;19259;51.590;5.320;2022-08-21T13:38:32;23.80;99.90
32907;DHT22;19259;51.590;5.320;2022-08-21T13:41:08;23.60;99.90
32907;DHT22;19259;51.590;5.320;2022-08-21T13:43:36;23.70;99.90
32907;DHT22;19259;51.590;5.320;2022-08-21T13:46:09;23.70;99.90
32907;DHT22;19259;51.590;5.320;2022-08-21T13:48:37;23.70;99.90
32907;DHT22;19259;51.590;5.320;2022-08-21T13:51:05;23.60;99.90
32907;DHT22;19259;51.590;5.320;2022-08-21T13:53:43;23.70;99.90
32907;DHT22;19259;51.590;5.320;2022-08-21T13:56:04;23.60;99.90
32907;DHT22;19259;51.590;5.320;2022-08-21T13:58:44;23.60;99.90
32907;DHT22;19259;51.590;5.320;2022-08-21T14:01:21;23.90;99.90
32907;DHT22;19259;51.590;5.320;2022-08-21T14:03:50;24.10;99.90
32907;DHT22;19259;51.590;5.320;2022-08-21T14:06:21;24.00;99.90
32907;DHT22;19259;51.590;5.320;2022-08-21T14:09:09;24.00;99.90
32907;DHT22;19259;51.590;5.320;2022-08-21T14:11:27;24.20;99.90
32907;DHT22;19259;51.590;5.320;2022-08-21T14:14:03;24.30;99.90
32907;DHT22;19259;51.590;5.320;2022-08-21T14:16:45;24.40;99.90
32907;DHT22;19259;51.590;5.320;2022-08-21T14:21:47;24.30;99.90
32907;DHT22;19259;51.590;5.320;2022-08-21T14:27:06;24.10;99.90
32907;DHT22;19259;51.590;5.320;2022-08-21T14:29:39;23.80;99.90
32907;DHT22;19259;51.590;5.320;2022-08-21T14:32:35;23.80;99.90
32907;DHT22;19259;51.590;5.320;2022-08-21T14:34:44;24.00;99.90
32907;DHT22;19259;51.590;5.320;2022-08-21T14:37:12;24.10;99.90
32907;DHT22;19259;51.590;5.320;2022-08-21T14:39:39;24.10;99.90
32907;DHT22;19259;51.590;5.320;2022-08-21T14:42:07;24.00;99.90
32907;DHT22;19259;51.590;5.320;2022-08-21T14:44:35;24.10;99.90
32907;DHT22;19259;51.590;5.320;2022-08-21T14:47:03;24.10;99.90
32907;DHT22;19259;51.590;5.320;2022-08-21T14:49:30;24.20;99.90
32907;DHT22;19259;51.590;5.320;2022-08-21T14:51:58;24.30;99.90
32907;DHT22;19259;51.590;5.320;2022-08-21T14:54:30;24.20;99.90
32907;DHT22;19259;51.590;5.320;2022-08-21T14:57:05;24.20;99.90
32907;DHT22;19259;51.590;5.320;2022-08-21T14:59:30;24.00;99.90
32907;DHT22;19259;51.590;5.320;2022-08-21T15:01:59;24.00;99.90
32907;DHT22;19259;51.590;5.320;2022-08-21T15:04:27;24.00;99.90
32907;DHT22;19259;51.590;5.320;2022-08-21T15:06:54;24.00;99.90
32907;DHT22;19259;51.590;5.320;2022-08-21T15:09:23;23.80;99.90
32907;DHT22;19259;51.590;5.320;2022-08-21T15:11:53;23.70;99.90
32907;DHT22;19259;51.590;5.320;2022-08-21T15:14:26;23.70;99.90
32907;DHT22;19259;51.590;5.320;2022-08-21T15:16:52;23.80;99.90
32907;DHT22;19259;51.590;5.320;2022-08-21T15:19:20;23.80;99.90
32907;DHT22;19259;51.590;5.320;2022-08-21T15:21:47;23.60;99.90
32907;DHT22;19259;51.590;5.320;2022-08-21T15:24:15;23.70;99.90
32907;DHT22;19259;51.590;5.320;2022-08-21T15:26:43;23.80;99.90
32907;DHT22;19259;51.590;5.320;2022-08-21T15:29:11;23.90;99.90
32907;DHT22;19259;51.590;5.320;2022-08-21T15:31:54;24.20;99.90
32907;DHT22;19259;51.590;5.320;2022-08-21T15:34:23;24.10;99.90
32907;DHT22;19259;51.590;5.320;2022-08-21T15:36:51;24.30;99.90
32907;DHT22;19259;51.590;5.320;2022-08-21T15:39:19;24.10;99.90
32907;DHT22;19259;51.590;5.320;2022-08-21T15:41:46;23.90;99.90
32907;DHT22;19259;51.590;5.320;2022-08-21T15:44:14;23.80;99.90
32907;DHT22;19259;51.590;5.320;2022-08-21T15:46:42;23.70;99.90
32907;DHT22;19259;51.590;5.320;2022-08-21T15:49:11;23.60;99.90
32907;DHT22;19259;51.590;5.320;2022-08-21T15:51:39;23.70;99.90
32907;DHT22;19259;51.590;5.320;2022-08-21T15:54:06;23.70;99.90
32907;DHT22;19259;51.590;5.320;2022-08-21T15:56:36;23.80;99.90
32907;DHT22;19259;51.590;5.320;2022-08-21T15:59:13;23.80;99.90
32907;DHT22;19259;51.590;5.320;2022-08-21T16:01:38;23.80;99.90
32907;DHT22;19259;51.590;5.320;2022-08-21T16:04:06;23.90;99.90
32907;DHT22;19259;51.590;5.320;2022-08-21T16:06:37;23.90;99.90
32907;DHT22;19259;51.590;5.320;2022-08-21T16:09:07;24.00;99.90
32907;DHT22;19259;51.590;5.320;2022-08-21T16:11:36;24.00;99.90
32907;DHT22;19259;51.590;5.320;2022-08-21T16:14:05;23.90;99.90
32907;DHT22;19259;51.590;5.320;2022-08-21T16:16:34;23.90;99.90
32907;DHT22;19259;51.590;5.320;2022-08-21T16:19:05;23.90;99.90
32907;DHT22;19259;51.590;5.320;2022-08-21T16:21:35;23.80;99.90
32907;DHT22;19259;51.590;5.320;2022-08-21T16:24:03;23.80;99.90
32907;DHT22;19259;51.590;5.320;2022-08-21T16:26:31;23.60;99.90
32907;DHT22;19259;51.590;5.320;2022-08-21T16:29:00;23.60;99.90
32907;DHT22;19259;51.590;5.320;2022-08-21T16:31:28;23.40;99.90
32907;DHT22;19259;51.590;5.320;2022-08-21T16:33:57;23.40;99.90
32907;DHT22;19259;51.590;5.320;2022-08-21T16:36:26;23.50;99.90
32907;DHT22;19259;51.590;5.320;2022-08-21T16:38:57;23.50;99.90
32907;DHT22;19259;51.590;5.320;2022-08-21T16:41:28;23.40;99.90
32907;DHT22;19259;51.590;5.320;2022-08-21T16:43:55;23.20;99.90
32907;DHT22;19259;51.590;5.320;2022-08-21T16:46:23;23.10;99.90
32907;DHT22;19259;51.590;5.320;2022-08-21T16:48:51;22.90;99.90
32907;DHT22;19259;51.590;5.320;2022-08-21T16:51:21;22.90;99.90
32907;DHT22;19259;51.590;5.320;2022-08-21T16:53:51;22.90;99.90